sensor_id;sensor_type;location;lat;lon;timestamp;P1;durP1;ratioP1;P2;durP2;ratioP2
70543;SDS011;58097;48.364;-1.224;2022-09-09T00:00:35;29.52;;;5.47;;
70543;SDS011;58097;48.364;-1.224;2022-09-09T00:08:38;23.08;;;5.07;;
70543;SDS011;58097;48.364;-1.224;2022-09-09T00:11:14;16.60;;;5.10;;
70543;SDS011;58097;48.364;-1.224;2022-09-09T00:13:48;19.25;;;4.22;;
70543;SDS011;58097;48.364;-1.224;2022-09-09T00:16:21;24.17;;;4.20;;
70543;SDS011;58097;48.364;-1.224;2022-09-09T00:21:17;16.88;;;3.88;;
70543;SDS011;58097;48.364;-1.224;2022-09-09T00:23:50;21.33;;;4.40;;
70543;SDS011;58097;48.364;-1.224;2022-09-09T00:32:00;22.75;;;3.97;;
70543;SDS011;58097;48.364;-1.224;2022-09-09T00:34:37;24.48;;;4.15;;
70543;SDS011;58097;48.364;-1.224;2022-09-09T00:37:07;21.40;;;4.45;;
70543;SDS011;58097;48.364;-1.224;2022-09-09T00:39:37;22.73;;;4.70;;
70543;SDS011;58097;48.364;-1.224;2022-09-09T00:44:38;21.60;;;4.72;;
70543;SDS011;58097;48.364;-1.224;2022-09-09T00:47:25;20.65;;;4.45;;
70543;SDS011;58097;48.364;-1.224;2022-09-09T00:57:36;15.10;;;4.32;;
70543;SDS011;58097;48.364;-1.224;2022-09-09T01:00:20;25.02;;;5.22;;
70543;SDS011;58097;48.364;-1.224;2022-09-09T01:11:22;29.00;;;4.10;;
70543;SDS011;58097;48.364;-1.224;2022-09-09T01:16:44;32.05;;;4.70;;
70543;SDS011;58097;48.364;-1.224;2022-09-09T01:19:10;15.45;;;4.13;;
70543;SDS011;58097;48.364;-1.224;2022-09-09T01:27:03;26.17;;;4.93;;
70543;SDS011;58097;48.364;-1.224;2022-09-09T01:29:31;14.90;;;3.63;;
70543;SDS011;58097;48.364;-1.224;2022-09-09T01:32:01;16.05;;;4.03;;
70543;SDS011;58097;48.364;-1.224;2022-09-09T01:34:47;20.50;;;4.53;;
70543;SDS011;58097;48.364;-1.224;2022-09-09T01:37:12;23.65;;;4.43;;
70543;SDS011;58097;48.364;-1.224;2022-09-09T01:39:38;20.25;;;4.50;;
70543;SDS011;58097;48.364;-1.224;2022-09-09T01:42:08;20.75;;;4.50;;
70543;SDS011;58097;48.364;-1.224;2022-09-09T01:44:36;20.75;;;4.30;;
70543;SDS011;58097;48.364;-1.224;2022-09-09T01:47:02;13.52;;;3.33;;
70543;SDS011;58097;48.364;-1.224;2022-09-09T01:49:29;22.02;;;4.18;;
70543;SDS011;58097;48.364;-1.224;2022-09-09T01:51:55;25.50;;;5.40;;
70543;SDS011;58097;48.364;-1.224;2022-09-09T01:54:22;18.73;;;4.63;;
70543;SDS011;58097;48.364;-1.224;2022-09-09T02:04:57;16.30;;;3.72;;
70543;SDS011;58097;48.364;-1.224;2022-09-09T02:07:30;20.73;;;4.43;;
70543;SDS011;58097;48.364;-1.224;2022-09-09T02:10:19;19.55;;;4.03;;
70543;SDS011;58097;48.364;-1.224;2022-09-09T02:12:51;17.63;;;3.88;;
70543;SDS011;58097;48.364;-1.224;2022-09-09T02:15:30;17.98;;;3.75;;
70543;SDS011;58097;48.364;-1.224;2022-09-09T02:18:04;20.08;;;4.88;;
70543;SDS011;58097;48.364;-1.224;2022-09-09T02:20:34;22.80;;;3.83;;
70543;SDS011;58097;48.364;-1.224;2022-09-09T02:23:02;22.60;;;4.15;;
70543;SDS011;58097;48.364;-1.224;2022-09-09T02:25:30;15.55;;;3.40;;
70543;SDS011;58097;48.364;-1.224;2022-09-09T02:27:55;17.35;;;3.50;;
70543;SDS011;58097;48.364;-1.224;2022-09-09T02:30:23;13.88;;;3.88;;
70543;SDS011;58097;48.364;-1.224;2022-09-09T02:32:50;14.13;;;3.78;;
70543;SDS011;58097;48.364;-1.224;2022-09-09T02:35:22;18.98;;;3.63;;
70543;SDS011;58097;48.364;-1.224;2022-09-09T02:37:50;21.13;;;4.03;;
70543;SDS011;58097;48.364;-1.224;2022-09-09T02:40:18;14.85;;;3.58;;
70543;SDS011;58097;48.364;-1.224;2022-09-09T02:42:45;15.00;;;3.20;;
70543;SDS011;58097;48.364;-1.224;2022-09-09T02:45:12;12.10;;;3.05;;
70543;SDS011;58097;48.364;-1.224;2022-09-09T02:50:34;14.70;;;3.30;;
70543;SDS011;58097;48.364;-1.224;2022-09-09T02:55:59;17.38;;;3.25;;
70543;SDS011;58097;48.364;-1.224;2022-09-09T02:58:32;18.27;;;3.85;;
70543;SDS011;58097;48.364;-1.224;2022-09-09T03:00:58;19.85;;;3.85;;
70543;SDS011;58097;48.364;-1.224;2022-09-09T03:03:26;16.20;;;3.50;;
70543;SDS011;58097;48.364;-1.224;2022-09-09T03:05:52;13.75;;;3.42;;
70543;SDS011;58097;48.364;-1.224;2022-09-09T03:08:17;16.95;;;3.75;;
70543;SDS011;58097;48.364;-1.224;2022-09-09T03:10:43;15.43;;;3.13;;
70543;SDS011;58097;48.364;-1.224;2022-09-09T03:13:08;13.63;;;3.38;;
70543;SDS011;58097;48.364;-1.224;2022-09-09T03:15:34;17.35;;;3.15;;
70543;SDS011;58097;48.364;-1.224;2022-09-09T03:18:00;17.35;;;3.78;;
70543;SDS011;58097;48.364;-1.224;2022-09-09T03:20:27;13.77;;;3.50;;
70543;SDS011;58097;48.364;-1.224;2022-09-09T03:22:53;15.00;;;2.47;;
70543;SDS011;58097;48.364;-1.224;2022-09-09T03:25:20;12.73;;;3.50;;
70543;SDS011;58097;48.364;-1.224;2022-09-09T03:27:48;14.65;;;3.80;;
70543;SDS011;58097;48.364;-1.224;2022-09-09T03:30:14;18.23;;;3.55;;
70543;SDS011;58097;48.364;-1.224;2022-09-09T03:32:40;12.23;;;2.95;;
70543;SDS011;58097;48.364;-1.224;2022-09-09T03:35:05;13.15;;;3.28;;
70543;SDS011;58097;48.364;-1.224;2022-09-09T03:37:31;16.92;;;3.50;;
70543;SDS011;58097;48.364;-1.224;2022-09-09T03:39:56;12.93;;;2.75;;
70543;SDS011;58097;48.364;-1.224;2022-09-09T03:42:22;11.73;;;2.53;;
70543;SDS011;58097;48.364;-1.224;2022-09-09T03:44:47;13.43;;;2.72;;
70543;SDS011;58097;48.364;-1.224;2022-09-09T03:47:16;14.55;;;3.50;;
70543;SDS011;58097;48.364;-1.224;2022-09-09T03:49:46;12.20;;;2.70;;
70543;SDS011;58097;48.364;-1.224;2022-09-09T03:52:13;9.45;;;2.97;;
70543;SDS011;58097;48.364;-1.224;2022-09-09T03:54:39;14.20;;;2.78;;
70543;SDS011;58097;48.364;-1.224;2022-09-09T03:57:04;10.10;;;2.65;;
70543;SDS011;58097;48.364;-1.224;2022-09-09T03:59:30;18.45;;;3.42;;
70543;SDS011;58097;48.364;-1.224;2022-09-09T04:01:55;17.33;;;3.47;;
70543;SDS011;58097;48.364;-1.224;2022-09-09T04:04:22;15.25;;;3.38;;
70543;SDS011;58097;48.364;-1.224;2022-09-09T04:06:47;17.52;;;3.17;;
70543;SDS011;58097;48.364;-1.224;2022-09-09T04:09:14;15.70;;;2.90;;
70543;SDS011;58097;48.364;-1.224;2022-09-09T04:11:39;13.27;;;2.97;;
70543;SDS011;58097;48.364;-1.224;2022-09-09T04:14:05;11.73;;;2.80;;
70543;SDS011;58097;48.364;-1.224;2022-09-09T04:16:31;9.02;;;2.97;;
70543;SDS011;58097;48.364;-1.224;2022-09-09T04:21:29;9.77;;;2.55;;
70543;SDS011;58097;48.364;-1.224;2022-09-09T04:23:55;12.60;;;2.70;;
70543;SDS011;58097;48.364;-1.224;2022-09-09T04:26:21;14.13;;;2.97;;
70543;SDS011;58097;48.364;-1.224;2022-09-09T04:28:46;15.93;;;2.70;;
70543;SDS011;58097;48.364;-1.224;2022-09-09T04:31:18;15.13;;;2.78;;
70543;SDS011;58097;48.364;-1.224;2022-09-09T04:33:47;11.05;;;2.92;;
70543;SDS011;58097;48.364;-1.224;2022-09-09T04:36:14;17.27;;;2.95;;
70543;SDS011;58097;48.364;-1.224;2022-09-09T04:38:39;12.93;;;2.42;;
70543;SDS011;58097;48.364;-1.224;2022-09-09T04:41:05;10.88;;;3.28;;
70543;SDS011;58097;48.364;-1.224;2022-09-09T04:43:31;11.07;;;2.58;;
70543;SDS011;58097;48.364;-1.224;2022-09-09T04:45:56;15.27;;;3.60;;
70543;SDS011;58097;48.364;-1.224;2022-09-09T04:48:24;12.75;;;3.00;;
70543;SDS011;58097;48.364;-1.224;2022-09-09T04:50:57;17.95;;;3.30;;
70543;SDS011;58097;48.364;-1.224;2022-09-09T04:53:27;9.98;;;2.75;;
70543;SDS011;58097;48.364;-1.224;2022-09-09T04:56:00;6.97;;;2.40;;
70543;SDS011;58097;48.364;-1.224;2022-09-09T04:58:29;11.02;;;3.20;;
70543;SDS011;58097;48.364;-1.224;2022-09-09T05:01:01;13.40;;;2.85;;
70543;SDS011;58097;48.364;-1.224;2022-09-09T05:03:48;16.02;;;2.95;;
70543;SDS011;58097;48.364;-1.224;2022-09-09T05:06:15;13.77;;;3.22;;
70543;SDS011;58097;48.364;-1.224;2022-09-09T05:08:45;14.18;;;3.08;;
70543;SDS011;58097;48.364;-1.224;2022-09-09T05:11:17;9.95;;;2.78;;
70543;SDS011;58097;48.364;-1.224;2022-09-09T05:13:50;12.65;;;2.70;;
70543;SDS011;58097;48.364;-1.224;2022-09-09T05:16:16;12.98;;;3.03;;
70543;SDS011;58097;48.364;-1.224;2022-09-09T05:18:43;15.32;;;3.00;;
70543;SDS011;58097;48.364;-1.224;2022-09-09T05:21:09;15.70;;;3.33;;
70543;SDS011;58097;48.364;-1.224;2022-09-09T05:23:35;9.40;;;3.00;;
70543;SDS011;58097;48.364;-1.224;2022-09-09T05:26:02;13.25;;;3.42;;
70543;SDS011;58097;48.364;-1.224;2022-09-09T05:28:28;18.50;;;3.05;;
70543;SDS011;58097;48.364;-1.224;2022-09-09T05:30:58;19.70;;;3.97;;
70543;SDS011;58097;48.364;-1.224;2022-09-09T05:33:29;19.75;;;3.78;;
70543;SDS011;58097;48.364;-1.224;2022-09-09T05:35:57;13.18;;;3.25;;
70543;SDS011;58097;48.364;-1.224;2022-09-09T05:38:27;17.92;;;3.03;;
70543;SDS011;58097;48.364;-1.224;2022-09-09T05:40:54;8.88;;;3.35;;
70543;SDS011;58097;48.364;-1.224;2022-09-09T05:43:21;17.42;;;3.10;;
70543;SDS011;58097;48.364;-1.224;2022-09-09T05:45:47;15.35;;;3.92;;
70543;SDS011;58097;48.364;-1.224;2022-09-09T05:48:13;11.55;;;3.10;;
70543;SDS011;58097;48.364;-1.224;2022-09-09T05:50:42;17.65;;;3.55;;
70543;SDS011;58097;48.364;-1.224;2022-09-09T05:53:08;12.98;;;3.13;;
70543;SDS011;58097;48.364;-1.224;2022-09-09T05:55:35;14.68;;;3.00;;
70543;SDS011;58097;48.364;-1.224;2022-09-09T05:58:00;17.02;;;3.90;;
70543;SDS011;58097;48.364;-1.224;2022-09-09T06:00:26;19.75;;;3.70;;
70543;SDS011;58097;48.364;-1.224;2022-09-09T06:02:52;14.02;;;3.10;;
70543;SDS011;58097;48.364;-1.224;2022-09-09T06:05:18;11.88;;;2.90;;
70543;SDS011;58097;48.364;-1.224;2022-09-09T06:07:44;11.82;;;2.92;;
70543;SDS011;58097;48.364;-1.224;2022-09-09T06:10:10;10.32;;;2.95;;
70543;SDS011;58097;48.364;-1.224;2022-09-09T06:12:38;17.77;;;3.90;;
70543;SDS011;58097;48.364;-1.224;2022-09-09T06:15:04;17.13;;;3.72;;
70543;SDS011;58097;48.364;-1.224;2022-09-09T06:17:30;19.50;;;3.67;;
70543;SDS011;58097;48.364;-1.224;2022-09-09T06:19:55;14.80;;;3.47;;
70543;SDS011;58097;48.364;-1.224;2022-09-09T06:22:21;14.90;;;3.40;;
70543;SDS011;58097;48.364;-1.224;2022-09-09T06:24:46;19.85;;;3.95;;
70543;SDS011;58097;48.364;-1.224;2022-09-09T06:27:11;17.70;;;3.00;;
70543;SDS011;58097;48.364;-1.224;2022-09-09T06:29:38;14.77;;;3.28;;
70543;SDS011;58097;48.364;-1.224;2022-09-09T06:32:04;17.35;;;3.28;;
70543;SDS011;58097;48.364;-1.224;2022-09-09T06:34:29;12.63;;;2.88;;
70543;SDS011;58097;48.364;-1.224;2022-09-09T06:36:55;20.42;;;3.40;;
70543;SDS011;58097;48.364;-1.224;2022-09-09T06:39:22;16.98;;;3.97;;
70543;SDS011;58097;48.364;-1.224;2022-09-09T06:41:48;21.50;;;3.88;;
70543;SDS011;58097;48.364;-1.224;2022-09-09T06:44:14;13.60;;;3.47;;
70543;SDS011;58097;48.364;-1.224;2022-09-09T06:46:40;21.13;;;4.18;;
70543;SDS011;58097;48.364;-1.224;2022-09-09T06:49:06;9.82;;;3.05;;
70543;SDS011;58097;48.364;-1.224;2022-09-09T06:51:35;17.33;;;3.75;;
70543;SDS011;58097;48.364;-1.224;2022-09-09T06:54:07;17.55;;;3.45;;
70543;SDS011;58097;48.364;-1.224;2022-09-09T06:56:34;14.00;;;3.47;;
70543;SDS011;58097;48.364;-1.224;2022-09-09T06:59:02;24.00;;;3.80;;
70543;SDS011;58097;48.364;-1.224;2022-09-09T07:01:30;27.42;;;4.30;;
70543;SDS011;58097;48.364;-1.224;2022-09-09T07:03:58;12.90;;;2.85;;
70543;SDS011;58097;48.364;-1.224;2022-09-09T07:08:51;15.15;;;3.80;;
70543;SDS011;58097;48.364;-1.224;2022-09-09T07:11:21;16.27;;;3.13;;
70543;SDS011;58097;48.364;-1.224;2022-09-09T07:13:48;12.38;;;3.42;;
70543;SDS011;58097;48.364;-1.224;2022-09-09T07:16:15;18.65;;;4.07;;
70543;SDS011;58097;48.364;-1.224;2022-09-09T07:18:42;16.20;;;3.20;;
70543;SDS011;58097;48.364;-1.224;2022-09-09T07:21:09;19.90;;;3.15;;
70543;SDS011;58097;48.364;-1.224;2022-09-09T07:23:37;15.57;;;3.33;;
70543;SDS011;58097;48.364;-1.224;2022-09-09T07:26:06;17.48;;;3.55;;
70543;SDS011;58097;48.364;-1.224;2022-09-09T07:28:33;12.57;;;3.08;;
70543;SDS011;58097;48.364;-1.224;2022-09-09T07:31:00;15.27;;;3.63;;
70543;SDS011;58097;48.364;-1.224;2022-09-09T07:33:27;17.23;;;4.47;;
70543;SDS011;58097;48.364;-1.224;2022-09-09T07:36:01;15.52;;;2.95;;
70543;SDS011;58097;48.364;-1.224;2022-09-09T07:38:28;20.33;;;3.42;;
70543;SDS011;58097;48.364;-1.224;2022-09-09T07:41:02;19.20;;;4.22;;
70543;SDS011;58097;48.364;-1.224;2022-09-09T07:43:29;15.48;;;3.08;;
70543;SDS011;58097;48.364;-1.224;2022-09-09T07:45:57;13.02;;;3.33;;
70543;SDS011;58097;48.364;-1.224;2022-09-09T07:48:23;17.92;;;3.40;;
70543;SDS011;58097;48.364;-1.224;2022-09-09T07:50:48;13.40;;;3.08;;
70543;SDS011;58097;48.364;-1.224;2022-09-09T07:53:14;16.73;;;4.00;;
70543;SDS011;58097;48.364;-1.224;2022-09-09T07:55:39;13.85;;;2.65;;
70543;SDS011;58097;48.364;-1.224;2022-09-09T07:58:05;13.30;;;3.25;;
70543;SDS011;58097;48.364;-1.224;2022-09-09T08:00:30;13.82;;;3.67;;
70543;SDS011;58097;48.364;-1.224;2022-09-09T08:02:58;11.48;;;2.92;;
70543;SDS011;58097;48.364;-1.224;2022-09-09T08:05:24;16.10;;;3.40;;
70543;SDS011;58097;48.364;-1.224;2022-09-09T08:07:50;14.80;;;3.25;;
70543;SDS011;58097;48.364;-1.224;2022-09-09T08:10:15;17.60;;;3.90;;
70543;SDS011;58097;48.364;-1.224;2022-09-09T08:12:41;14.30;;;3.35;;
70543;SDS011;58097;48.364;-1.224;2022-09-09T08:15:06;18.92;;;3.92;;
70543;SDS011;58097;48.364;-1.224;2022-09-09T08:17:32;13.75;;;2.75;;
70543;SDS011;58097;48.364;-1.224;2022-09-09T08:19:57;17.38;;;3.95;;
70543;SDS011;58097;48.364;-1.224;2022-09-09T08:22:30;15.95;;;3.25;;
70543;SDS011;58097;48.364;-1.224;2022-09-09T08:24:55;16.77;;;3.42;;
70543;SDS011;58097;48.364;-1.224;2022-09-09T08:27:21;14.30;;;3.33;;
70543;SDS011;58097;48.364;-1.224;2022-09-09T08:29:47;15.80;;;3.13;;
70543;SDS011;58097;48.364;-1.224;2022-09-09T08:32:12;16.92;;;3.47;;
70543;SDS011;58097;48.364;-1.224;2022-09-09T08:34:38;13.27;;;3.08;;
70543;SDS011;58097;48.364;-1.224;2022-09-09T08:37:03;17.95;;;3.40;;
70543;SDS011;58097;48.364;-1.224;2022-09-09T08:39:29;14.48;;;2.65;;
70543;SDS011;58097;48.364;-1.224;2022-09-09T08:44:24;13.77;;;3.13;;
70543;SDS011;58097;48.364;-1.224;2022-09-09T08:52:51;13.95;;;3.10;;
70543;SDS011;58097;48.364;-1.224;2022-09-09T08:58:02;12.65;;;2.83;;
70543;SDS011;58097;48.364;-1.224;2022-09-09T09:00:40;11.60;;;3.05;;
70543;SDS011;58097;48.364;-1.224;2022-09-09T09:03:19;15.85;;;3.25;;
70543;SDS011;58097;48.364;-1.224;2022-09-09T09:11:14;15.90;;;3.22;;
70543;SDS011;58097;48.364;-1.224;2022-09-09T09:16:23;10.75;;;3.13;;
70543;SDS011;58097;48.364;-1.224;2022-09-09T09:18:57;9.03;;;1.83;;
70543;SDS011;58097;48.364;-1.224;2022-09-09T09:24:04;9.60;;;3.03;;
70543;SDS011;58097;48.364;-1.224;2022-09-09T09:26:40;14.75;;;2.92;;
70543;SDS011;58097;48.364;-1.224;2022-09-09T09:29:12;15.85;;;3.17;;
70543;SDS011;58097;48.364;-1.224;2022-09-09T09:31:45;11.75;;;3.50;;
70543;SDS011;58097;48.364;-1.224;2022-09-09T09:34:16;12.52;;;3.28;;
70543;SDS011;58097;48.364;-1.224;2022-09-09T09:36:44;13.55;;;3.10;;
70543;SDS011;58097;48.364;-1.224;2022-09-09T09:39:27;14.00;;;3.10;;
70543;SDS011;58097;48.364;-1.224;2022-09-09T09:41:54;11.65;;;2.22;;
70543;SDS011;58097;48.364;-1.224;2022-09-09T09:44:27;7.68;;;2.10;;
70543;SDS011;58097;48.364;-1.224;2022-09-09T09:47:05;11.40;;;2.47;;
70543;SDS011;58097;48.364;-1.224;2022-09-09T09:49:32;10.38;;;2.60;;
70543;SDS011;58097;48.364;-1.224;2022-09-09T09:52:01;9.90;;;2.40;;
70543;SDS011;58097;48.364;-1.224;2022-09-09T09:54:29;16.02;;;2.85;;
70543;SDS011;58097;48.364;-1.224;2022-09-09T09:57:07;10.32;;;2.10;;
70543;SDS011;58097;48.364;-1.224;2022-09-09T09:59:34;8.93;;;2.65;;
70543;SDS011;58097;48.364;-1.224;2022-09-09T10:04:45;11.88;;;2.55;;
70543;SDS011;58097;48.364;-1.224;2022-09-09T10:07:12;11.75;;;2.35;;
70543;SDS011;58097;48.364;-1.224;2022-09-09T10:09:41;15.40;;;3.17;;
70543;SDS011;58097;48.364;-1.224;2022-09-09T10:20:13;8.95;;;2.33;;
70543;SDS011;58097;48.364;-1.224;2022-09-09T10:22:52;10.98;;;2.38;;
70543;SDS011;58097;48.364;-1.224;2022-09-09T10:25:52;10.77;;;2.38;;
70543;SDS011;58097;48.364;-1.224;2022-09-09T10:28:31;15.13;;;3.22;;
70543;SDS011;58097;48.364;-1.224;2022-09-09T10:36:23;10.10;;;2.50;;
70543;SDS011;58097;48.364;-1.224;2022-09-09T10:38:57;9.25;;;2.00;;
70543;SDS011;58097;48.364;-1.224;2022-09-09T10:52:41;11.02;;;3.00;;
70543;SDS011;58097;48.364;-1.224;2022-09-09T10:58:09;12.68;;;2.53;;
70543;SDS011;58097;48.364;-1.224;2022-09-09T11:00:41;11.32;;;2.72;;
70543;SDS011;58097;48.364;-1.224;2022-09-09T11:03:21;9.77;;;2.37;;
70543;SDS011;58097;48.364;-1.224;2022-09-09T11:05:51;11.88;;;3.22;;
70543;SDS011;58097;48.364;-1.224;2022-09-09T11:08:22;9.15;;;2.30;;
70543;SDS011;58097;48.364;-1.224;2022-09-09T11:13:26;12.13;;;2.78;;
70543;SDS011;58097;48.364;-1.224;2022-09-09T11:16:11;12.00;;;2.80;;
70543;SDS011;58097;48.364;-1.224;2022-09-09T11:18:46;10.27;;;2.22;;
70543;SDS011;58097;48.364;-1.224;2022-09-09T11:21:22;8.57;;;1.92;;
70543;SDS011;58097;48.364;-1.224;2022-09-09T11:23:56;8.35;;;1.70;;
70543;SDS011;58097;48.364;-1.224;2022-09-09T11:26:31;9.45;;;2.28;;
70543;SDS011;58097;48.364;-1.224;2022-09-09T11:40:37;11.93;;;2.88;;
70543;SDS011;58097;48.364;-1.224;2022-09-09T11:43:04;10.43;;;2.33;;
70543;SDS011;58097;48.364;-1.224;2022-09-09T11:45:34;14.30;;;2.70;;
70543;SDS011;58097;48.364;-1.224;2022-09-09T11:48:01;6.00;;;1.92;;
70543;SDS011;58097;48.364;-1.224;2022-09-09T11:50:29;7.40;;;2.25;;
70543;SDS011;58097;48.364;-1.224;2022-09-09T11:53:05;8.35;;;2.35;;
70543;SDS011;58097;48.364;-1.224;2022-09-09T11:55:46;9.80;;;2.53;;
70543;SDS011;58097;48.364;-1.224;2022-09-09T12:00:37;13.15;;;3.40;;
70543;SDS011;58097;48.364;-1.224;2022-09-09T12:06:48;12.68;;;3.05;;
70543;SDS011;58097;48.364;-1.224;2022-09-09T12:08:51;7.03;;;2.10;;
70543;SDS011;58097;48.364;-1.224;2022-09-09T12:11:29;9.50;;;2.25;;
70543;SDS011;58097;48.364;-1.224;2022-09-09T12:13:56;7.47;;;1.80;;
70543;SDS011;58097;48.364;-1.224;2022-09-09T12:16:30;7.63;;;1.65;;
70543;SDS011;58097;48.364;-1.224;2022-09-09T12:19:03;6.88;;;1.60;;
70543;SDS011;58097;48.364;-1.224;2022-09-09T12:21:58;7.40;;;2.38;;
70543;SDS011;58097;48.364;-1.224;2022-09-09T12:24:37;7.63;;;1.85;;
70543;SDS011;58097;48.364;-1.224;2022-09-09T12:27:20;7.75;;;2.20;;
70543;SDS011;58097;48.364;-1.224;2022-09-09T12:30:01;10.82;;;1.98;;
70543;SDS011;58097;48.364;-1.224;2022-09-09T12:32:32;6.32;;;1.88;;
70543;SDS011;58097;48.364;-1.224;2022-09-09T12:40:20;5.55;;;1.60;;
70543;SDS011;58097;48.364;-1.224;2022-09-09T12:42:47;8.55;;;2.47;;
70543;SDS011;58097;48.364;-1.224;2022-09-09T12:45:17;13.95;;;2.88;;
70543;SDS011;58097;48.364;-1.224;2022-09-09T12:50:21;8.57;;;2.15;;
70543;SDS011;58097;48.364;-1.224;2022-09-09T12:52:50;7.43;;;1.85;;
70543;SDS011;58097;48.364;-1.224;2022-09-09T12:55:28;7.35;;;2.10;;
70543;SDS011;58097;48.364;-1.224;2022-09-09T12:57:56;4.93;;;1.60;;
70543;SDS011;58097;48.364;-1.224;2022-09-09T13:00:24;6.25;;;1.50;;
70543;SDS011;58097;48.364;-1.224;2022-09-09T13:02:54;9.25;;;1.63;;
70543;SDS011;58097;48.364;-1.224;2022-09-09T13:05:23;13.25;;;2.58;;
70543;SDS011;58097;48.364;-1.224;2022-09-09T13:10:27;6.35;;;1.75;;
70543;SDS011;58097;48.364;-1.224;2022-09-09T13:12:56;4.80;;;1.60;;
70543;SDS011;58097;48.364;-1.224;2022-09-09T13:15:23;7.90;;;2.15;;
70543;SDS011;58097;48.364;-1.224;2022-09-09T13:17:58;8.13;;;2.30;;
70543;SDS011;58097;48.364;-1.224;2022-09-09T13:20:28;4.97;;;1.67;;
70543;SDS011;58097;48.364;-1.224;2022-09-09T13:22:54;7.78;;;2.28;;
70543;SDS011;58097;48.364;-1.224;2022-09-09T13:28:00;11.05;;;2.55;;
70543;SDS011;58097;48.364;-1.224;2022-09-09T13:30:31;8.57;;;2.33;;
70543;SDS011;58097;48.364;-1.224;2022-09-09T13:36:12;7.32;;;2.05;;
70543;SDS011;58097;48.364;-1.224;2022-09-09T13:38:36;11.63;;;2.45;;
70543;SDS011;58097;48.364;-1.224;2022-09-09T13:41:24;8.65;;;2.60;;
70543;SDS011;58097;48.364;-1.224;2022-09-09T13:43:53;8.73;;;2.17;;
70543;SDS011;58097;48.364;-1.224;2022-09-09T13:49:01;11.07;;;2.47;;
70543;SDS011;58097;48.364;-1.224;2022-09-09T13:51:48;12.65;;;2.58;;
70543;SDS011;58097;48.364;-1.224;2022-09-09T13:54:16;7.00;;;1.80;;
70543;SDS011;58097;48.364;-1.224;2022-09-09T13:56:44;7.90;;;2.17;;
70543;SDS011;58097;48.364;-1.224;2022-09-09T13:59:11;8.93;;;2.10;;
70543;SDS011;58097;48.364;-1.224;2022-09-09T14:01:37;5.80;;;1.83;;
70543;SDS011;58097;48.364;-1.224;2022-09-09T14:04:03;14.20;;;2.58;;
70543;SDS011;58097;48.364;-1.224;2022-09-09T14:06:31;8.20;;;2.20;;
70543;SDS011;58097;48.364;-1.224;2022-09-09T14:08:57;7.40;;;1.85;;
70543;SDS011;58097;48.364;-1.224;2022-09-09T14:11:23;8.43;;;1.98;;
70543;SDS011;58097;48.364;-1.224;2022-09-09T14:13:48;10.23;;;2.20;;
70543;SDS011;58097;48.364;-1.224;2022-09-09T14:16:17;11.23;;;2.08;;
70543;SDS011;58097;48.364;-1.224;2022-09-09T14:18:43;7.13;;;2.03;;
70543;SDS011;58097;48.364;-1.224;2022-09-09T14:21:09;7.03;;;2.28;;
70543;SDS011;58097;48.364;-1.224;2022-09-09T14:23:35;9.15;;;2.08;;
70543;SDS011;58097;48.364;-1.224;2022-09-09T14:26:00;7.47;;;1.80;;
70543;SDS011;58097;48.364;-1.224;2022-09-09T14:28:26;9.18;;;2.20;;
70543;SDS011;58097;48.364;-1.224;2022-09-09T14:30:53;7.45;;;2.13;;
70543;SDS011;58097;48.364;-1.224;2022-09-09T14:33:18;6.50;;;1.60;;
70543;SDS011;58097;48.364;-1.224;2022-09-09T14:35:44;8.27;;;2.20;;
70543;SDS011;58097;48.364;-1.224;2022-09-09T14:38:09;10.48;;;2.53;;
70543;SDS011;58097;48.364;-1.224;2022-09-09T14:40:35;8.23;;;2.15;;
70543;SDS011;58097;48.364;-1.224;2022-09-09T14:43:02;10.10;;;2.63;;
70543;SDS011;58097;48.364;-1.224;2022-09-09T14:45:28;11.35;;;2.55;;
70543;SDS011;58097;48.364;-1.224;2022-09-09T14:47:53;8.45;;;2.35;;
70543;SDS011;58097;48.364;-1.224;2022-09-09T14:50:19;12.65;;;3.08;;
70543;SDS011;58097;48.364;-1.224;2022-09-09T14:52:45;8.65;;;2.70;;
70543;SDS011;58097;48.364;-1.224;2022-09-09T14:55:10;11.05;;;2.72;;
70543;SDS011;58097;48.364;-1.224;2022-09-09T14:57:36;11.43;;;2.47;;
70543;SDS011;58097;48.364;-1.224;2022-09-09T15:00:02;9.35;;;2.55;;
70543;SDS011;58097;48.364;-1.224;2022-09-09T15:02:29;12.68;;;2.85;;
70543;SDS011;58097;48.364;-1.224;2022-09-09T15:04:54;21.33;;;4.07;;
70543;SDS011;58097;48.364;-1.224;2022-09-09T15:07:23;14.23;;;4.10;;
70543;SDS011;58097;48.364;-1.224;2022-09-09T15:09:48;16.05;;;4.65;;
70543;SDS011;58097;48.364;-1.224;2022-09-09T15:12:14;12.55;;;3.40;;
70543;SDS011;58097;48.364;-1.224;2022-09-09T15:14:40;9.30;;;3.28;;
70543;SDS011;58097;48.364;-1.224;2022-09-09T15:17:06;14.02;;;2.83;;
70543;SDS011;58097;48.364;-1.224;2022-09-09T15:19:31;11.00;;;2.65;;
70543;SDS011;58097;48.364;-1.224;2022-09-09T15:21:57;14.50;;;2.75;;
70543;SDS011;58097;48.364;-1.224;2022-09-09T15:24:24;10.48;;;2.28;;
70543;SDS011;58097;48.364;-1.224;2022-09-09T15:26:50;9.88;;;2.92;;
70543;SDS011;58097;48.364;-1.224;2022-09-09T15:29:16;10.23;;;2.10;;
70543;SDS011;58097;48.364;-1.224;2022-09-09T15:31:41;4.88;;;1.75;;
70543;SDS011;58097;48.364;-1.224;2022-09-09T15:34:07;8.48;;;2.13;;
70543;SDS011;58097;48.364;-1.224;2022-09-09T15:36:34;12.35;;;2.53;;
70543;SDS011;58097;48.364;-1.224;2022-09-09T15:39:03;8.95;;;2.42;;
70543;SDS011;58097;48.364;-1.224;2022-09-09T15:41:30;6.88;;;2.03;;
70543;SDS011;58097;48.364;-1.224;2022-09-09T15:43:56;10.02;;;2.47;;
70543;SDS011;58097;48.364;-1.224;2022-09-09T15:48:49;7.25;;;1.92;;
70543;SDS011;58097;48.364;-1.224;2022-09-09T15:51:15;10.55;;;1.80;;
70543;SDS011;58097;48.364;-1.224;2022-09-09T15:53:41;10.27;;;2.75;;
70543;SDS011;58097;48.364;-1.224;2022-09-09T15:56:09;7.05;;;2.30;;
70543;SDS011;58097;48.364;-1.224;2022-09-09T15:58:35;8.88;;;2.05;;
70543;SDS011;58097;48.364;-1.224;2022-09-09T16:01:05;7.22;;;2.08;;
70543;SDS011;58097;48.364;-1.224;2022-09-09T16:03:38;6.35;;;1.92;;
70543;SDS011;58097;48.364;-1.224;2022-09-09T16:06:07;7.82;;;2.53;;
70543;SDS011;58097;48.364;-1.224;2022-09-09T16:08:38;9.15;;;1.70;;
70543;SDS011;58097;48.364;-1.224;2022-09-09T16:11:15;9.63;;;2.53;;
70543;SDS011;58097;48.364;-1.224;2022-09-09T16:13:43;7.70;;;1.85;;
70543;SDS011;58097;48.364;-1.224;2022-09-09T16:16:11;5.90;;;1.95;;
70543;SDS011;58097;48.364;-1.224;2022-09-09T16:18:41;7.60;;;1.83;;
70543;SDS011;58097;48.364;-1.224;2022-09-09T16:21:14;6.45;;;1.75;;
70543;SDS011;58097;48.364;-1.224;2022-09-09T16:23:41;10.20;;;2.30;;
70543;SDS011;58097;48.364;-1.224;2022-09-09T16:26:08;9.98;;;2.20;;
70543;SDS011;58097;48.364;-1.224;2022-09-09T16:28:39;7.78;;;2.35;;
70543;SDS011;58097;48.364;-1.224;2022-09-09T16:31:05;8.93;;;2.47;;
70543;SDS011;58097;48.364;-1.224;2022-09-09T16:33:32;13.93;;;2.53;;
70543;SDS011;58097;48.364;-1.224;2022-09-09T16:35:57;10.73;;;2.35;;
70543;SDS011;58097;48.364;-1.224;2022-09-09T16:38:22;9.23;;;2.00;;
70543;SDS011;58097;48.364;-1.224;2022-09-09T16:40:49;12.18;;;2.80;;
70543;SDS011;58097;48.364;-1.224;2022-09-09T16:43:15;9.32;;;2.30;;
70543;SDS011;58097;48.364;-1.224;2022-09-09T16:45:44;7.15;;;1.65;;
70543;SDS011;58097;48.364;-1.224;2022-09-09T16:48:10;9.57;;;2.35;;
70543;SDS011;58097;48.364;-1.224;2022-09-09T16:50:35;6.63;;;2.15;;
70543;SDS011;58097;48.364;-1.224;2022-09-09T16:53:01;10.57;;;2.47;;
70543;SDS011;58097;48.364;-1.224;2022-09-09T16:55:31;11.05;;;2.35;;
70543;SDS011;58097;48.364;-1.224;2022-09-09T16:57:57;11.93;;;3.13;;
70543;SDS011;58097;48.364;-1.224;2022-09-09T17:00:22;10.85;;;2.10;;
70543;SDS011;58097;48.364;-1.224;2022-09-09T17:02:48;9.02;;;2.25;;
70543;SDS011;58097;48.364;-1.224;2022-09-09T17:05:13;9.43;;;2.15;;
70543;SDS011;58097;48.364;-1.224;2022-09-09T17:07:39;7.75;;;1.90;;